Terminal Aerodrome Forecast
Issued by NWS Greer, SC

Home | Current Version | Previous Version | Text Only | Print | Product List | Glossary On
Versions: 1 2 3 4 5 6 7 8 9 10 11 12 13 14 15 16 17 18 19 20 21 22 23 24 25 26 27 28 29 30 31 32 33 34 35 36 37 38 39
000
FTUS42 KGSP 301310 AAB
TAFAVL
TAF AMD
KAVL 301310Z 3013/3112 14006KT 5SM BR VCSH BKN008
     FM301600 14007KT P6SM -RA OVC015
     FM302000 15008KT P6SM -SHRA OVC020 PROB30 3022/3102 3SM TSRA
      OVC012CB
     FM310200 15008KT 4SM SHRA OVC007=

USA.gov is the U.S. government's official web portal to all federal, state and local government web resources and services.